Aérodrome :
LOGIN :

S'inscrire | Disclaimer

   EN    FR    IT 

 










Légende :    VFR   VFR Marginal   IFR   IFR Intensif   IFR Très Intensif
Visi : 
Plafond : 
>= 8 km
>= 3000ft
5 à 8 km
1000 à 3000 ft
1500m à 5 km
500 à 1000 ft
800 à 1500m
200 à 500 ft
< 800m
< 200 ft
Symboles :   Orages  Brouillard  Fortes neiges  Fortes précipitations  Vent > 20 kt
SIGMETs :   Divers  Orages  Givrage  Turbulence  Onde Orograph.  Cendres Volcan.







- Altitude de l'aérodrome : 915 ft
- Code IATA : LUG


LSZA - Lugano

DERNIER METAR :
  • 220550Z 01002KT 5000 BR NSC 00/M01 Q1018 NOSIG

METARs EXPIRÉS :
  • 220520Z VRB02KT 5000 BR NSC 01/00 Q1018 NOSIG
  • 220450Z AUTO 36002KT 5000 NCD 01/00 Q1018
  • 220420Z AUTO VRB01KT 5000 NCD 01/01 Q1018
  • 220350Z AUTO 02002KT 4300 BR NCD 02/01 Q1018
  • 220320Z AUTO VRB01KT 5000 NCD 01/00 Q1018

TAF TAF LSZA
Valide du 22 à 06h jusqu'au 22 à 15h UTC


220525Z 2206/2215 VRB03KT 4000 BR NSC
TEMPO 2212/2215 CAVOK
ATIS : +41 22 417 40 88
Pas de NOTAMs connus pour ce terrain.



MET'MAP, la Météo Aéronautique d'un coup d'oeil ! - Copyright ORBIFLY Décembre 2007 - Disclaimer

ORBIFLY MET'MAP TEAM :

Programmation & Développement : Alexandra Zaïnal
Conception & Développement : Baudouin d'Aumeries
Co-Programmation & Développement : Marc-Olivier Méhu
Soutien technique & logistique : Manuel Goepfert

Contact : metmap@orbifly.com




SOURCES & CREDITS :

   NOAA